Loisir ou Compétition : Rejoignez un Club de la Fédération

Résultats

TROPHEE DU BEAUFORT ETAPE 6 CHAMPIONNAT DE SAVOIE BEN - MIN

PEISEY NANCROIX

MASS Dames

Jury de Compétition

Délégué Technique :
RAMIERE BERNARD ()
D.T. Adjoint :
 
Dir. Epreuve :
CLEYRAT CYRIL (SA)

Caractéristiques de la Piste

Piste :
Site de Replis
Distance :
2.5 km
Point Haut :
 
Point Bas :
 
Montée Tot. :
 
Montée Max. :
 
Homologation :
 

Pénalité Appliquée :
 
Coefficient :
 

Catégorie :
BEN
Style :
L

09/02/14 - FSAF0081

CltDosClt/CatCodeAnNom PrénomComClubTempsEcartPoints
1241/BENFFS26447192002RICHON CAPUCINESACS LA FECLAZ09:37.400:00.0
2352/BENFFS26559032002BERTRAND FANYSASC MERIBEL09:38.300:00.9
3213/BENFFS26489852002MANCINI CHARLOTTESACN REVARD09:39.100:01.7
444/BENFFS26653102002MUNIER ELODIESAMONOLITHE SF09:39.600:02.2
5105/BENFFS26653012002RAMAZ ADELAIDESABAUGES S.N10:01.000:23.6
6376/BENFFS26653112002VIGNOL MANONSAMONOLITHE SF10:01.600:24.2
7237/BENFFS26549632002FANTIN LAURASACN REVARD10:18.000:40.6
8328/BENFFS26704472002LAFONTAINE THEASABAUGES S.N10:20.300:42.9
969/BENFFS26704902002ACKERMANN MARIELLESACS LA FECLAZ10:23.500:46.1
101910/BENFFS26683752002DUNAND JULIANESASC BOZEL10:33.700:56.3
112511/BENFFS26690822002ELOY LILOUSACOURCHEVEL10:41.601:04.2
121712/BENFFS26648912002BELLON MARGAUXSASC BOZEL10:44.201:06.8
132213/BENFFS26705612002MATHE MARCELLINESACS LA FECLAZ10:54.601:17.2
14514/BENFFS26658612002SERAFIN BEAUTE AMANDINESACS LA FECLAZ11:11.901:34.5
15915/BENFFS26513102002CONVARD EMILIESACOURCHEVEL11:12.401:35.0
162916/BENFFS26544452003SOUVY LOU ANNESASC BOZEL11:12.801:35.4
171217/BENFFS26596482003SARRAT MANONSASC BOZEL11:27.901:50.5
18318/BENFFS26489722002JAUBERTIE PAJOT FIONASASC BOZEL11:36.801:59.4
192719/BENFFS26534612003VIAL PASCALINESACN REVARD11:37.502:00.1
201520/BENFFS26543732003LAMBERT TALIASASC MERIBEL11:38.102:00.7
213121/BENFFS26661952002COGERINO AUDREYSACOURCHEVEL11:40.302:02.9
22722/BENFFS26705952003COURTIEU MARGOTSACS LA FECLAZ11:43.102:05.7
233423/BENFFS26661052002VIARD CLOESASC ARECHES11:45.402:08.0
242824/BENFFS26577932003ZANELLATO ELODIESACS VAL CENIS11:45.702:08.3
252625/BENFFS26436802002VIENNET ELISASASC VALLOIRE12:17.202:39.8
26126/BENFFS26651682003RAOULT ZOESASC BOZEL12:19.902:42.5
271127/BENFFS26704532003LANCHAIS MANONSABAUGES S.N12:21.202:43.8
281628/BENFFS26556772003TISSOT MAELYSSASC BOZEL12:21.302:43.9
291429/BENFFS26617962002CONSTANT ELISESASC ARECHES12:21.702:44.3
303330/BENFFS26705942003CAVORET LILOUSACS LA FECLAZ12:24.002:46.6
31231/BENFFS26704492003BROUTIER AMELIESABAUGES S.N12:39.703:02.3
322032/BENFFS26497962002REY CHARLOTTESACOURCHEVEL12:54.003:16.6
331333/BENFFS26656352003CATELLA CLARASASC MERIBEL13:21.203:43.8
34834/BENFFS26651702002VERCHERE MARGUERITESASC BOZEL15:17.505:40.1
Non partants
18FFS26634502002GRISNAUX YSALINESASC MENUIRES
30FFS26500762002BOURGEOIS MARIESACS VAL CENIS
36FFS26658582002SABATELLI CARLASACS LA FECLAZ